Time;durP1;ratioP1;P1;durP2;ratioP2;P2;SDS_P1;SDS_P2;PMS_P1;PMS_P2;Temp;Humidity;BMP_temperature;BMP_pressure;BME280_temperature;BME280_humidity;BME280_pressure;Samples;Min_cycle;Max_cycle;Signal;HPM_P1;HPM_P2
2023/04/12 00:00:39;;;;;;;31.30;22.00;;;;;;;8.65;73.27;99370.88;103097;1255;107661;-75
2023/04/12 00:03:18;;;;;;;28.10;21.50;;;;;;;8.64;73.42;99361.23;103014;1258;139356;-75
2023/04/12 00:05:56;;;;;;;25.00;20.30;;;;;;;8.61;73.38;99361.15;103081;1259;108262;-74
2023/04/12 00:08:41;;;;;;;26.50;20.40;;;;;;;8.56;73.56;99352.49;102718;1265;138313;-74
2023/04/12 00:11:06;;;;;;;28.00;20.00;;;;;;;8.52;73.45;99351.79;102740;1264;112182;-74
2023/04/12 00:13:32;;;;;;;25.20;18.70;;;;;;;8.47;73.49;99348.02;102715;1264;108338;-76
2023/04/12 00:15:56;;;;;;;22.90;17.50;;;;;;;8.40;73.35;99346.17;102539;1264;138234;-76
2023/04/12 00:18:23;;;;;;;23.40;18.70;;;;;;;8.34;73.33;99346.22;102602;1264;107646;-74
2023/04/12 00:20:47;;;;;;;21.10;16.80;;;;;;;8.29;73.40;99356.95;103027;1264;138937;-75
2023/04/12 00:23:13;;;;;;;21.50;17.00;;;;;;;8.25;73.44;99359.02;102590;1262;110805;-75
2023/04/12 00:25:57;;;;;;;21.30;16.50;;;;;;;8.22;73.43;99365.20;102528;1264;139410;-75
2023/04/12 00:28:21;;;;;;;21.40;16.30;;;;;;;8.19;73.33;99363.88;102642;1262;98322;-75
2023/04/12 00:30:46;;;;;;;21.60;16.00;;;;;;;8.18;73.50;99364.60;102456;1262;108274;-75
2023/04/12 00:33:09;;;;;;;19.90;15.90;;;;;;;8.17;73.49;99366.90;102497;1261;138594;-75
2023/04/12 00:35:39;;;;;;;22.20;16.60;;;;;;;8.15;73.43;99362.14;102634;1265;111505;-74
2023/04/12 00:38:11;;;;;;;21.70;15.90;;;;;;;8.12;73.53;99361.21;102533;1266;138544;-75
2023/04/12 00:40:41;;;;;;;22.10;15.90;;;;;;;8.11;73.66;99357.44;102778;1262;97862;-74
2023/04/12 00:43:26;;;;;;;23.30;16.40;;;;;;;8.10;73.77;99352.80;102991;1259;107580;-73
2023/04/12 00:45:50;;;;;;;21.80;15.90;;;;;;;8.11;73.80;99348.99;102894;1261;138188;-73
2023/04/12 00:48:27;;;;;;;21.00;16.70;;;;;;;8.09;73.77;99343.52;103070;1260;111333;-74
2023/04/12 00:50:54;;;;;;;23.40;16.80;;;;;;;8.08;73.75;99336.61;102909;1261;138346;-74
2023/04/12 00:53:21;;;;;;;22.60;17.00;;;;;;;8.06;73.88;99334.24;103503;1258;98297;-74
2023/04/12 00:55:50;;;;;;;22.10;17.30;;;;;;;8.04;73.99;99334.66;102802;1263;138668;-74
2023/04/12 00:58:15;;;;;;;23.90;17.60;;;;;;;8.01;74.19;99329.41;102984;1262;97674;-73
2023/04/12 01:00:39;;;;;;;23.20;17.90;;;;;;;8.00;74.21;99327.38;103310;1261;110834;-74
2023/04/12 01:03:04;;;;;;;26.20;18.70;;;;;;;7.99;74.12;99327.07;102814;1258;138456;-74
2023/04/12 01:05:28;;;;;;;23.90;19.00;;;;;;;7.99;74.27;99324.15;102932;1257;97994;-75
2023/04/12 01:08:04;;;;;;;26.10;19.40;;;;;;;7.98;74.30;99326.06;102686;1263;138318;-74
2023/04/12 01:10:38;;;;;;;26.70;19.30;;;;;;;7.97;74.32;99329.57;103102;1260;97723;-74
2023/04/12 01:13:16;;;;;;;26.20;19.60;;;;;;;7.98;74.27;99331.97;103000;1261;111449;-75
2023/04/12 01:15:57;;;;;;;24.20;18.30;;;;;;;8.01;74.26;99336.02;102678;1261;138288;-75
2023/04/12 01:18:24;;;;;;;23.40;18.00;;;;;;;8.02;74.52;99336.48;102941;1257;99171;-74
2023/04/12 01:20:53;;;;;;;23.30;18.40;;;;;;;8.02;74.40;99335.80;102851;1260;138312;-75
2023/04/12 01:23:41;;;;;;;25.40;18.50;;;;;;;8.03;74.37;99336.08;103033;1258;97794;-75
2023/04/12 01:26:32;;;;;;;23.60;18.40;;;;;;;8.05;74.34;99342.77;102844;1261;138536;-75
2023/04/12 01:29:00;;;;;;;23.40;18.30;;;;;;;8.06;74.56;99346.02;102848;1261;108920;-75
2023/04/12 01:31:27;;;;;;;24.10;18.60;;;;;;;8.07;74.65;99341.84;102968;1263;97805;-75
2023/04/12 01:33:52;;;;;;;27.60;19.30;;;;;;;8.10;74.71;99348.14;102874;1262;138026;-75
2023/04/12 01:36:21;;;;;;;24.00;18.90;;;;;;;8.12;74.64;99352.38;103022;1257;97927;-75
2023/04/12 01:38:55;;;;;;;23.80;18.50;;;;;;;8.14;74.68;99359.59;102817;1263;138236;-75
2023/04/12 01:41:28;;;;;;;23.10;17.20;;;;;;;8.15;74.76;99360.75;102885;1262;108132;-75
2023/04/12 01:43:52;;;;;;;20.60;17.00;;;;;;;8.15;74.79;99358.69;102877;1262;138646;-75
2023/04/12 01:46:26;;;;;;;21.90;16.90;;;;;;;8.18;74.87;99354.07;103029;1260;108055;-75
2023/04/12 01:49:12;;;;;;;18.90;14.70;;;;;;;8.21;75.02;99352.57;102883;1261;97887;-76
2023/04/12 01:52:02;;;;;;;18.90;14.00;;;;;;;8.21;74.94;99346.33;103354;1261;138088;-75
2023/04/12 01:54:30;;;;;;;16.90;14.00;;;;;;;8.22;75.08;99345.95;102922;1271;108806;-76
2023/04/12 01:57:00;;;;;;;18.80;14.80;;;;;;;8.23;74.97;99348.34;102893;1261;138483;-74
2023/04/12 01:59:29;;;;;;;17.60;14.20;;;;;;;8.24;75.07;99348.11;102854;1257;107948;-74
2023/04/12 02:01:53;;;;;;;17.40;13.50;;;;;;;8.25;75.11;99340.64;102807;1262;138443;-75
2023/04/12 02:04:21;;;;;;;17.10;13.50;;;;;;;8.24;75.09;99344.67;102985;1257;112363;-74
2023/04/12 02:06:47;;;;;;;;;;;;;;;8.24;74.96;99342.06;102925;1262;107523;-75
2023/04/12 02:09:24;;;;;;;17.10;13.30;;;;;;;8.23;75.11;99339.16;102862;1258;124507;-74
2023/04/12 02:11:49;;;;;;;19.50;14.70;;;;;;;8.24;75.09;99337.40;102933;1261;107723;-74
2023/04/12 02:14:13;;;;;;;20.30;15.30;;;;;;;8.24;75.01;99339.29;102785;1261;138472;-74
2023/04/12 02:16:37;;;;;;;22.60;15.90;;;;;;;8.24;75.06;99338.42;102943;1262;111822;-74
2023/04/12 02:19:01;;;;;;;18.70;14.60;;;;;;;8.24;75.09;99336.38;103019;1257;108340;-74
2023/04/12 02:21:25;;;;;;;21.40;15.20;;;;;;;8.22;75.08;99328.11;102880;1263;138280;-75
2023/04/12 02:23:49;;;;;;;17.50;14.20;;;;;;;8.22;75.09;99323.77;102894;1263;107912;-74
2023/04/12 02:26:13;;;;;;;19.80;14.50;;;;;;;8.23;75.08;99323.41;102814;1263;138508;-74
2023/04/12 02:28:37;;;;;;;19.30;15.50;;;;;;;8.22;75.23;99324.83;102768;1263;110648;-74
2023/04/12 02:31:01;;;;;;;18.30;14.90;;;;;;;8.21;75.13;99321.08;102862;1261;107759;-74
2023/04/12 02:33:27;;;;;;;20.10;14.00;;;;;;;8.18;75.21;99322.21;104169;1257;139107;-74
2023/04/12 02:35:51;;;;;;;21.10;15.60;;;;;;;8.18;75.14;99325.15;102854;1258;107644;-74
2023/04/12 02:38:15;;;;;;;21.40;15.50;;;;;;;8.18;75.14;99323.42;102733;1258;138525;-74
2023/04/12 02:40:40;;;;;;;18.70;14.50;;;;;;;8.19;75.27;99327.02;102952;1258;109790;-75
2023/04/12 02:43:06;;;;;;;20.20;14.80;;;;;;;8.21;75.23;99328.16;102796;1262;108034;-74
2023/04/12 02:45:30;;;;;;;18.90;14.60;;;;;;;8.23;75.24;99334.15;102625;1263;138426;-75
2023/04/12 02:47:54;;;;;;;19.30;14.90;;;;;;;8.24;75.28;99336.85;102953;1258;107452;-75
2023/04/12 02:50:21;;;;;;;19.50;15.00;;;;;;;8.26;75.31;99340.29;102768;1257;138531;-74
2023/04/12 02:52:53;;;;;;;19.90;15.30;;;;;;;8.27;75.26;99343.01;102850;1258;111238;-74
2023/04/12 02:55:17;;;;;;;20.00;15.60;;;;;;;8.28;75.27;99345.74;102921;1258;107569;-74
2023/04/12 02:57:41;;;;;;;18.70;15.10;;;;;;;8.28;75.22;99346.80;102606;1263;138547;-74
2023/04/12 03:00:10;;;;;;;17.60;14.40;;;;;;;8.29;75.18;99347.27;102992;1261;108236;-74
2023/04/12 03:02:44;;;;;;;20.60;15.90;;;;;;;8.29;75.19;99345.34;102854;1261;138356;-75
2023/04/12 03:05:16;;;;;;;19.90;15.60;;;;;;;8.30;74.98;99340.83;103037;1257;111952;-74
2023/04/12 03:07:40;;;;;;;21.00;16.30;;;;;;;8.30;75.09;99341.33;102727;1263;138547;-73
2023/04/12 03:10:06;;;;;;;21.00;15.60;;;;;;;8.30;75.19;99341.68;103005;1261;97775;-74
2023/04/12 03:12:31;;;;;;;21.30;16.60;;;;;;;8.29;75.05;99342.23;102844;1259;108696;-74
2023/04/12 03:15:14;;;;;;;22.40;16.70;;;;;;;8.29;75.09;99341.41;102871;1260;139027;-75
2023/04/12 03:17:41;;;;;;;21.20;16.80;;;;;;;8.28;75.15;99342.96;102981;1260;111265;-75
2023/04/12 03:20:08;;;;;;;23.50;17.20;;;;;;;8.28;75.21;99344.36;102634;1264;138595;-74
2023/04/12 03:22:33;;;;;;;20.30;16.60;;;;;;;8.28;75.24;99349.21;102911;1261;98363;-75
2023/04/12 03:24:56;;;;;;;22.70;17.10;;;;;;;8.28;75.22;99350.27;102811;1263;107506;-74
2023/04/12 03:27:21;;;;;;;22.10;17.10;;;;;;;8.27;75.33;99355.29;102790;1261;138303;-74
2023/04/12 03:29:45;;;;;;;23.90;18.60;;;;;;;8.28;75.35;99354.77;102899;1263;112307;-74
2023/04/12 03:32:09;;;;;;;21.20;16.30;;;;;;;8.28;75.35;99356.48;102531;1264;138749;-74
2023/04/12 03:34:34;;;;;;;25.70;17.00;;;;;;;8.29;75.50;99354.20;102806;1258;96769;-74
2023/04/12 03:37:03;;;;;;;19.60;15.70;;;;;;;8.29;75.35;99350.90;102679;1257;107695;-75
2023/04/12 03:39:39;;;;;;;22.80;17.70;;;;;;;8.29;75.31;99347.45;102631;1260;138405;-74
2023/04/12 03:42:05;;;;;;;21.00;16.90;;;;;;;8.29;75.29;99345.20;102946;1260;110544;-75
2023/04/12 03:44:28;;;;;;;21.40;16.10;;;;;;;8.29;75.36;99346.58;102720;1257;138545;-74
2023/04/12 03:46:53;;;;;;;21.60;17.20;;;;;;;8.29;75.45;99351.77;102929;1263;97957;-74
2023/04/12 03:49:18;;;;;;;24.60;18.00;;;;;;;8.28;75.45;99350.41;102949;1257;107747;-74
2023/04/12 03:51:44;;;;;;;22.80;17.90;;;;;;;8.29;75.52;99351.06;102937;1257;138354;-75
2023/04/12 03:54:08;;;;;;;24.50;17.10;;;;;;;8.30;75.54;99352.08;102952;1261;111188;-74
2023/04/12 03:56:39;;;;;;;23.90;17.80;;;;;;;8.32;75.55;99352.89;102842;1261;139307;-75
2023/04/12 03:59:08;;;;;;;24.70;17.50;;;;;;;8.32;75.55;99355.29;103032;1256;98343;-75
2023/04/12 04:01:32;;;;;;;21.40;17.10;;;;;;;8.33;75.46;99351.29;102882;1262;107421;-73
2023/04/12 04:03:58;;;;;;;23.10;17.10;;;;;;;8.34;75.54;99353.52;102794;1257;138211;-74
2023/04/12 04:06:23;;;;;;;20.50;16.10;;;;;;;8.35;75.51;99356.25;102908;1257;112590;-74
2023/04/12 04:08:47;;;;;;;23.90;17.30;;;;;;;8.35;75.72;99355.19;102771;1257;138448;-74
2023/04/12 04:11:11;;;;;;;23.30;17.40;;;;;;;8.36;75.57;99357.59;102994;1257;97711;-74
2023/04/12 04:13:38;;;;;;;21.90;17.30;;;;;;;8.37;75.61;99353.73;102889;1260;108259;-75
2023/04/12 04:16:05;;;;;;;23.50;17.80;;;;;;;8.36;75.52;99349.44;103013;1258;97988;-74
2023/04/12 04:18:28;;;;;;;;;;;;;;;8.37;75.51;99349.23;102991;1261;111821;-74
2023/04/12 04:20:55;;;;;;;20.70;15.90;;;;;;;8.36;75.55;99347.89;102776;1260;124499;-75
2023/04/12 04:23:19;;;;;;;22.50;16.70;;;;;;;8.36;75.56;99353.08;102990;1261;97859;-73
2023/04/12 04:25:46;;;;;;;21.70;16.70;;;;;;;8.34;75.56;99354.72;102820;1257;138781;-73
2023/04/12 04:28:10;;;;;;;23.10;17.40;;;;;;;8.36;75.57;99355.17;102925;1258;97821;-74
2023/04/12 04:30:37;;;;;;;23.40;18.40;;;;;;;8.36;75.61;99355.86;103051;1259;110392;-76
2023/04/12 04:33:01;;;;;;;22.60;17.40;;;;;;;8.37;75.62;99361.69;102814;1256;138393;-76
2023/04/12 04:35:28;;;;;;;24.50;17.20;;;;;;;8.38;75.61;99365.66;102855;1261;98335;-77
2023/04/12 04:38:19;;;;;;;23.90;17.40;;;;;;;8.38;75.58;99369.79;102687;1263;138586;-75
2023/04/12 04:40:46;;;;;;;25.10;17.80;;;;;;;8.39;75.56;99369.58;102931;1260;98650;-75
2023/04/12 04:43:12;;;;;;;22.10;16.40;;;;;;;8.42;75.58;99373.11;102975;1260;112349;-75
2023/04/12 04:45:40;;;;;;;22.50;16.30;;;;;;;8.43;75.57;99373.61;102957;1260;138605;-75
2023/04/12 04:48:13;;;;;;;20.90;16.10;;;;;;;8.44;75.50;99381.20;102873;1262;97695;-76
2023/04/12 04:50:37;;;;;;;26.20;17.90;;;;;;;8.46;75.49;99382.67;102814;1260;138149;-75
2023/04/12 04:53:01;;;;;;;24.00;17.00;;;;;;;8.49;75.51;99385.34;102706;1263;97957;-74
2023/04/12 04:55:26;;;;;;;22.30;16.50;;;;;;;8.51;75.40;99389.77;102833;1263;111838;-76
2023/04/12 04:57:53;;;;;;;23.10;16.60;;;;;;;8.54;75.43;99390.20;102654;1263;138421;-76
2023/04/12 05:00:18;;;;;;;22.40;16.50;;;;;;;8.57;75.41;99391.11;102929;1257;97805;-77
2023/04/12 05:02:48;;;;;;;20.60;16.00;;;;;;;8.59;75.40;99386.00;102710;1257;138262;-77
2023/04/12 05:05:21;;;;;;;21.50;16.30;;;;;;;8.61;75.27;99391.98;102935;1260;98201;-76
2023/04/12 05:07:46;;;;;;;22.60;16.60;;;;;;;8.59;75.19;99388.75;102872;1258;138248;-76
2023/04/12 05:10:11;;;;;;;21.00;16.40;;;;;;;8.60;75.20;99389.77;102724;1261;107306;-77
2023/04/12 05:12:37;;;;;;;22.30;16.70;;;;;;;8.62;75.21;99394.40;102814;1257;98377;-77
2023/04/12 05:15:01;;;;;;;23.10;16.10;;;;;;;8.64;75.14;99396.58;102749;1257;138158;-76
2023/04/12 05:17:27;;;;;;;23.80;16.20;;;;;;;8.65;75.11;99398.27;102620;1260;311865;-76
2023/04/12 05:19:51;;;;;;;22.60;16.50;;;;;;;8.66;74.94;99399.80;102799;1256;138467;-78
2023/04/12 05:22:19;;;;;;;20.30;15.80;;;;;;;8.67;74.91;99401.85;102897;1260;107110;-77
2023/04/12 05:24:42;;;;;;;22.50;17.00;;;;;;;8.68;74.90;99404.92;102948;1257;97809;-79
2023/04/12 05:27:06;;;;;;;22.70;17.20;;;;;;;8.70;74.89;99403.95;102818;1257;138177;-79
2023/04/12 05:29:30;;;;;;;28.30;17.80;;;;;;;8.73;74.82;99398.64;102887;1260;97839;-79
2023/04/12 05:31:54;;;;;;;25.40;17.90;;;;;;;8.76;74.76;99400.58;102849;1257;138274;-80
2023/04/12 05:34:18;;;;;;;23.90;16.90;;;;;;;8.79;74.68;99395.29;102680;1258;108699;-80
2023/04/12 05:36:51;;;;;;;24.10;16.30;;;;;;;8.83;74.59;99393.06;102964;1257;98322;-82
2023/04/12 05:39:15;;;;;;;24.00;17.50;;;;;;;8.84;74.52;99391.97;102676;1257;138181;-81
2023/04/12 05:41:40;;;;;;;22.70;15.70;;;;;;;8.87;74.69;99390.14;102918;1258;97813;-80
2023/04/12 05:44:04;;;;;;;24.00;17.00;;;;;;;8.93;74.62;99386.95;102865;1256;138457;-81
2023/04/12 05:46:28;;;;;;;24.50;17.80;;;;;;;8.95;74.42;99381.81;102915;1259;108111;-76
2023/04/12 05:48:52;;;;;;;26.60;18.90;;;;;;;9.00;74.34;99384.06;102848;1258;98408;-78
2023/04/12 05:51:16;;;;;;;24.10;17.50;;;;;;;9.05;74.18;99382.66;102738;1258;138117;-79
2023/04/12 05:53:42;;;;;;;23.60;17.70;;;;;;;9.08;74.08;99387.55;103418;1258;96854;-77
2023/04/12 05:56:09;;;;;;;24.80;17.60;;;;;;;9.11;73.93;99388.16;102531;1261;138645;-74
2023/04/12 05:58:33;;;;;;;25.50;17.00;;;;;;;9.14;73.97;99392.00;102986;1256;107476;-77
2023/04/12 06:00:57;;;;;;;26.50;17.20;;;;;;;9.17;73.94;99391.55;102876;1258;98384;-76
2023/04/12 06:03:22;;;;;;;24.90;17.90;;;;;;;9.22;73.92;99392.75;102848;1256;138326;-76
2023/04/12 06:05:53;;;;;;;27.40;18.50;;;;;;;9.27;73.81;99389.94;102845;1258;97711;-78
2023/04/12 06:08:16;;;;;;;26.30;19.40;;;;;;;9.31;73.60;99390.81;102860;1257;139017;-77
2023/04/12 06:10:41;;;;;;;29.30;18.50;;;;;;;9.35;73.44;99394.64;102960;1260;108828;-74
2023/04/12 06:13:05;;;;;;;26.70;18.60;;;;;;;9.38;73.09;99391.23;102911;1262;97800;-77
2023/04/12 06:15:30;;;;;;;30.00;18.60;;;;;;;9.38;73.09;99389.11;102786;1257;138369;-77
2023/04/12 06:17:58;;;;;;;27.70;20.10;;;;;;;9.43;72.97;99390.34;103028;1256;97868;-76
2023/04/12 06:20:25;;;;;;;28.80;21.40;;;;;;;9.45;72.66;99389.21;102649;1258;138314;-79
2023/04/12 06:22:49;;;;;;;28.70;20.70;;;;;;;9.49;72.50;99382.77;102678;1257;108085;-79
2023/04/12 06:25:15;;;;;;;27.80;19.90;;;;;;;9.54;72.43;99388.14;102814;1259;97816;-77
2023/04/12 06:27:46;;;;;;;28.30;20.40;;;;;;;9.58;72.42;99388.98;102648;1257;138916;-79
2023/04/12 06:30:13;;;;;;;31.40;21.50;;;;;;;9.61;72.26;99388.67;102917;1257;97895;-79
2023/04/12 06:32:57;;;;;;;28.50;20.50;;;;;;;9.60;71.94;99388.71;102954;1257;138378;-78
2023/04/12 06:35:21;;;;;;;31.70;20.40;;;;;;;9.58;71.84;99388.81;102696;1259;107089;-75
2023/04/12 06:37:45;;;;;;;25.30;19.10;;;;;;;9.56;71.83;99389.23;103343;1257;140143;-77
2023/04/12 06:40:11;;;;;;;30.30;19.80;;;;;;;9.57;71.81;99391.84;102901;1261;108640;-78
2023/04/12 06:42:35;;;;;;;26.50;19.50;;;;;;;9.58;71.88;99391.25;102900;1260;97821;-78
2023/04/12 06:44:59;;;;;;;28.10;19.20;;;;;;;9.58;71.84;99395.60;102855;1256;139913;-78
2023/04/12 06:47:43;;;;;;;26.00;19.00;;;;;;;9.60;71.80;99395.86;102949;1256;108025;-78
2023/04/12 06:50:11;;;;;;;25.20;18.70;;;;;;;9.60;71.75;99396.38;102697;1257;139307;-80
2023/04/12 06:52:34;;;;;;;26.70;18.50;;;;;;;9.60;71.77;99397.26;102925;1258;107361;-78
2023/04/12 06:54:58;;;;;;;26.90;18.70;;;;;;;9.61;71.74;99402.58;103002;1256;97710;-79
2023/04/12 06:57:22;;;;;;;23.50;18.00;;;;;;;9.57;71.47;99403.79;102784;1260;138310;-79
2023/04/12 06:59:45;;;;;;;23.80;18.50;;;;;;;9.48;71.33;99407.10;102917;1259;107690;-74
2023/04/12 07:02:09;;;;;;;25.60;18.30;;;;;;;9.42;71.37;99404.76;102846;1257;138889;-74
2023/04/12 07:04:34;;;;;;;25.30;19.00;;;;;;;9.37;71.41;99400.98;102942;1261;108135;-74
2023/04/12 07:07:05;;;;;;;27.30;17.50;;;;;;;9.35;71.43;99400.70;102800;1256;97687;-74
2023/04/12 07:09:31;;;;;;;26.00;18.20;;;;;;;9.36;71.51;99400.33;102890;1255;138611;-74
2023/04/12 07:11:59;;;;;;;24.20;18.10;;;;;;;9.40;71.62;99404.50;104325;1257;107227;-74
2023/04/12 07:14:23;;;;;;;24.40;18.10;;;;;;;9.44;71.63;99405.90;103262;1256;138504;-75
2023/04/12 07:16:46;;;;;;;24.10;18.50;;;;;;;9.47;71.64;99414.09;102824;1256;108029;-76
2023/04/12 07:19:11;;;;;;;25.60;19.10;;;;;;;9.52;71.57;99416.30;102930;1256;97704;-74
2023/04/12 07:21:35;;;;;;;22.40;18.20;;;;;;;9.56;71.48;99417.90;102893;1260;138282;-76
2023/04/12 07:23:58;;;;;;;24.20;18.10;;;;;;;9.59;71.41;99423.13;102986;1255;107291;-74
2023/04/12 07:26:42;;;;;;;28.80;17.70;;;;;;;9.59;71.15;99422.61;102968;1256;139040;-76
2023/04/12 07:29:06;;;;;;;23.90;18.00;;;;;;;9.57;71.15;99422.00;102938;1259;107480;-76
2023/04/12 07:31:31;;;;;;;24.00;17.70;;;;;;;9.58;71.07;99418.84;102877;1257;97890;-71
2023/04/12 07:33:54;;;;;;;22.60;17.40;;;;;;;9.59;71.06;99413.44;102961;1260;138758;-74
2023/04/12 07:36:20;;;;;;;23.50;18.10;;;;;;;9.65;71.09;99407.77;102768;1256;107562;-75
2023/04/12 07:39:04;;;;;;;24.30;18.00;;;;;;;9.70;70.90;99402.23;103971;1257;138760;-78
2023/04/12 07:41:37;;;;;;;23.90;18.00;;;;;;;9.69;70.71;99403.11;102964;1260;106207;-79
2023/04/12 07:44:01;;;;;;;24.50;19.20;;;;;;;9.67;70.59;99402.47;102784;1257;138629;-77
2023/04/12 07:46:24;;;;;;;25.40;17.90;;;;;;;9.64;70.54;99401.41;103026;1259;111294;-77
2023/04/12 07:48:48;;;;;;;27.00;18.30;;;;;;;9.61;70.57;99404.16;102983;1256;107713;-81
2023/04/12 07:51:21;;;;;;;24.50;17.80;;;;;;;9.55;70.63;99407.17;102815;1256;138649;-79
2023/04/12 07:53:47;;;;;;;24.60;17.70;;;;;;;9.54;70.71;99411.23;102926;1259;107939;-80
2023/04/12 07:56:33;;;;;;;23.10;18.10;;;;;;;9.58;70.91;99409.84;102772;1257;138614;-77
2023/04/12 07:58:57;;;;;;;26.30;18.70;;;;;;;9.62;70.78;99410.52;102847;1259;112398;-78
2023/04/12 08:01:21;;;;;;;23.30;17.60;;;;;;;9.63;70.71;99410.45;102828;1260;106854;-78
2023/04/12 08:03:45;;;;;;;26.60;18.70;;;;;;;9.66;70.69;99415.20;102729;1259;138431;-79
2023/04/12 08:06:30;;;;;;;24.20;18.30;;;;;;;9.64;70.48;99420.16;102840;1258;108727;-78
2023/04/12 08:09:00;;;;;;;27.30;18.10;;;;;;;9.57;70.48;99420.62;102769;1257;138608;-78
2023/04/12 08:11:38;;;;;;;24.90;18.80;;;;;;;9.53;70.63;99421.86;102888;1261;111001;-77
2023/04/12 08:14:05;;;;;;;24.90;18.70;;;;;;;9.54;70.85;99419.70;102664;1257;140031;-77
2023/04/12 08:16:32;;;;;;;26.10;18.40;;;;;;;9.59;70.96;99418.63;102778;1258;97905;-78
2023/04/12 08:18:57;;;;;;;24.20;18.30;;;;;;;9.59;70.65;99419.49;102867;1259;107618;-78
2023/04/12 08:21:23;;;;;;;;;;;;;;;9.59;70.73;99423.14;102733;1260;138502;-79
2023/04/12 08:23:49;;;;;;;25.20;18.10;;;;;;;9.56;70.75;99427.25;102906;1257;111923;-81
2023/04/12 08:26:13;;;;;;;26.30;19.00;;;;;;;9.58;70.75;99430.64;102726;1260;138694;-78
2023/04/12 08:28:37;;;;;;;23.20;18.20;;;;;;;9.62;70.71;99429.61;102841;1257;97937;-78
2023/04/12 08:31:03;;;;;;;26.10;18.50;;;;;;;9.62;70.60;99426.16;102830;1260;106784;-75
2023/04/12 08:33:27;;;;;;;25.20;18.90;;;;;;;9.63;70.70;99428.16;102638;1260;141088;-76
2023/04/12 08:35:51;;;;;;;24.70;19.00;;;;;;;9.65;70.64;99433.44;102882;1260;113722;-76
2023/04/12 08:38:28;;;;;;;24.10;17.80;;;;;;;9.66;70.59;99444.20;102804;1257;138517;-76
2023/04/12 08:41:09;;;;;;;27.10;19.50;;;;;;;9.63;70.54;99448.80;103066;1256;97690;-73
2023/04/12 08:43:35;;;;;;;;;;;;;;;9.63;70.61;99448.48;102880;1257;107657;-77
2023/04/12 08:45:59;;;;;;;25.90;18.30;;;;;;;9.56;70.29;99452.08;102760;1260;124470;-78
2023/04/12 08:48:24;;;;;;;24.80;18.50;;;;;;;9.42;70.33;99447.79;102910;1256;109932;-75
2023/04/12 08:51:01;;;;;;;26.90;19.40;;;;;;;9.36;70.66;99444.04;103371;1260;138484;-75
2023/04/12 08:53:25;;;;;;;25.40;19.20;;;;;;;9.39;70.86;99438.87;102917;1259;99496;-74
2023/04/12 08:55:48;;;;;;;24.90;18.70;;;;;;;9.50;71.12;99433.24;102860;1257;138543;-75
2023/04/12 08:58:14;;;;;;;27.30;20.00;;;;;;;9.62;71.19;99423.52;102917;1259;97866;-75
2023/04/12 09:00:38;;;;;;;24.80;18.40;;;;;;;9.80;71.32;99411.70;102955;1256;110158;-75
2023/04/12 09:03:02;;;;;;;25.90;18.70;;;;;;;9.96;71.11;99401.45;103604;1255;139204;-64
2023/04/12 09:05:29;;;;;;;25.40;19.80;;;;;;;10.15;71.21;99390.91;103045;1257;97843;-72
2023/04/12 09:07:53;;;;;;;26.70;19.00;;;;;;;10.40;70.83;99382.35;102881;1257;139158;-72
2023/04/12 09:10:32;;;;;;;28.10;18.70;;;;;;;10.64;70.42;99384.03;102933;1256;98282;-72
2023/04/12 09:12:55;;;;;;;25.10;17.70;;;;;;;10.87;69.80;99386.41;102877;1259;110729;-73
2023/04/12 09:15:22;;;;;;;25.80;18.80;;;;;;;11.03;69.07;99387.05;102812;1256;138651;-73
2023/04/12 09:17:48;;;;;;;24.00;17.90;;;;;;;11.14;68.51;99393.66;102823;1258;97813;-74
2023/04/12 09:20:24;;;;;;;26.40;19.20;;;;;;;11.25;68.38;99396.94;102823;1257;138837;-75
2023/04/12 09:22:48;;;;;;;23.10;17.00;;;;;;;11.38;68.24;99399.09;102783;1260;97861;-74
2023/04/12 09:25:13;;;;;;;24.60;17.60;;;;;;;11.46;67.80;99396.95;102799;1258;110749;-72
2023/04/12 09:27:47;;;;;;;21.90;17.10;;;;;;;11.59;67.53;99392.67;102856;1255;138749;-73
2023/04/12 09:30:12;;;;;;;27.00;16.90;;;;;;;11.78;67.38;99389.98;103021;1256;98332;-74
2023/04/12 09:32:37;;;;;;;21.00;16.20;;;;;;;12.00;66.84;99393.77;103534;1255;138634;-75
2023/04/12 09:35:01;;;;;;;20.00;15.60;;;;;;;12.27;66.51;99391.48;102672;1257;98550;-76
2023/04/12 09:37:25;;;;;;;21.80;16.00;;;;;;;12.64;66.07;99389.84;102781;1261;113365;-74
2023/04/12 09:40:00;;;;;;;20.80;16.30;;;;;;;12.95;65.39;99384.42;102799;1256;138740;-74
2023/04/12 09:42:24;;;;;;;18.30;15.50;;;;;;;13.24;64.72;99383.04;103525;1256;97834;-75
2023/04/12 09:44:58;;;;;;;18.00;15.20;;;;;;;13.38;63.49;99386.79;102885;1256;137808;-75
2023/04/12 09:47:23;;;;;;;19.40;14.80;;;;;;;13.37;62.78;99385.44;102944;1256;97929;-73
2023/04/12 09:49:47;;;;;;;19.70;15.30;;;;;;;13.32;62.38;99382.05;102848;1256;138377;-74
2023/04/12 09:52:12;;;;;;;20.70;15.70;;;;;;;13.25;62.04;99378.91;102924;1256;108332;-73
2023/04/12 09:54:41;;;;;;;20.20;15.00;;;;;;;13.30;62.16;99377.81;103034;1256;97676;-76
2023/04/12 09:57:07;;;;;;;18.70;14.50;;;;;;;13.38;61.89;99370.89;102640;1257;137815;-76
2023/04/12 09:59:37;;;;;;;21.00;14.80;;;;;;;13.44;61.56;99371.77;102904;1260;97780;-78
2023/04/12 10:02:03;;;;;;;22.20;14.20;;;;;;;13.49;61.37;99376.02;102998;1257;138045;-76
2023/04/12 10:04:28;;;;;;;;;;;;;;;13.60;61.44;99370.09;102845;1260;106351;-75
2023/04/12 10:06:53;;;;;;;18.10;14.40;;;;;;;13.74;61.08;99376.27;102838;1256;98291;-74
2023/04/12 10:09:17;;;;;;;17.20;14.30;;;;;;;13.80;60.79;99376.97;102678;1257;137880;-76
2023/04/12 10:11:41;;;;;;;17.70;14.80;;;;;;;13.80;60.47;99379.04;102885;1256;97808;-75
2023/04/12 10:14:06;;;;;;;18.30;14.30;;;;;;;13.76;60.05;99379.13;102762;1258;138160;-75
2023/04/12 10:16:32;;;;;;;17.70;14.50;;;;;;;13.75;59.90;99381.31;102894;1256;106717;-75
2023/04/12 10:19:01;;;;;;;18.90;14.10;;;;;;;13.80;59.84;99385.88;102929;1259;98231;-75
2023/04/12 10:21:25;;;;;;;18.80;14.50;;;;;;;13.83;59.47;99388.16;102871;1256;137848;-74
2023/04/12 10:23:49;;;;;;;17.40;13.30;;;;;;;13.85;59.24;99387.90;102835;1261;98034;-73
2023/04/12 10:26:15;;;;;;;15.60;12.60;;;;;;;13.86;58.96;99390.73;102649;1261;137951;-74
2023/04/12 10:28:40;;;;;;;16.00;12.70;;;;;;;13.97;58.55;99390.66;102891;1260;108220;-76
2023/04/12 10:31:29;;;;;;;14.80;12.60;;;;;;;14.08;58.33;99388.42;102926;1256;97758;-75
2023/04/12 10:33:55;;;;;;;14.70;12.60;;;;;;;14.32;58.08;99388.52;102831;1260;137646;-75
2023/04/12 10:36:18;;;;;;;16.80;12.40;;;;;;;14.34;57.55;99392.20;102772;1261;97819;-77
2023/04/12 10:38:46;;;;;;;16.30;13.80;;;;;;;14.40;57.75;99393.27;102764;1260;137754;-75
2023/04/12 10:41:17;;;;;;;14.90;12.60;;;;;;;14.54;57.34;99392.64;102741;1264;107540;-75
2023/04/12 10:43:41;;;;;;;16.80;12.80;;;;;;;14.69;57.06;99395.51;102985;1261;97782;-74
2023/04/12 10:46:05;;;;;;;17.60;13.30;;;;;;;14.76;56.69;99393.33;102921;1258;107524;-78
2023/04/12 10:48:33;;;;;;;16.10;13.20;;;;;;;14.82;56.39;99389.11;102975;1257;97793;-75
2023/04/12 10:51:13;;;;;;;17.10;13.20;;;;;;;14.82;55.80;99392.75;102913;1256;137763;-75
2023/04/12 10:53:37;;;;;;;16.10;12.20;;;;;;;14.95;55.71;99387.92;102950;1256;107713;-75
2023/04/12 10:56:40;;;;;;;17.20;12.50;;;;;;;15.15;55.63;99382.98;102806;1259;139822;-75
2023/04/12 10:59:07;;;;;;;15.30;12.30;;;;;;;15.81;55.63;99379.50;102733;1258;107618;-73
2023/04/12 11:02:02;;;;;;;15.80;12.50;;;;;;;16.32;55.06;99373.02;102897;1256;97676;-71
2023/04/12 11:04:26;;;;;;;14.00;12.20;;;;;;;16.68;54.33;99372.77;102880;1256;111382;-73
2023/04/12 11:07:08;;;;;;;16.40;12.10;;;;;;;16.92;53.46;99363.68;102875;1256;107492;-73
2023/04/12 11:09:40;;;;;;;15.80;12.20;;;;;;;16.94;52.55;99362.64;102819;1258;137928;-75
2023/04/12 11:12:13;;;;;;;15.00;12.20;;;;;;;16.99;52.25;99357.91;102678;1257;109124;-74
2023/04/12 11:14:38;;;;;;;14.90;12.40;;;;;;;17.19;52.24;99353.98;102702;1260;138969;-74